createdAt,value
2023-03-21T00:00:56.411Z,5.63
2023-03-21T00:03:25.360Z,4.55
2023-03-21T00:05:54.333Z,4.90
2023-03-21T00:08:25.408Z,4.60
2023-03-21T00:10:58.343Z,4.60
2023-03-21T00:13:28.339Z,4.40
2023-03-21T00:16:09.773Z,4.63
2023-03-21T00:18:46.675Z,3.88
2023-03-21T00:24:08.036Z,4.38
2023-03-21T00:26:38.234Z,4.22
2023-03-21T00:29:06.442Z,4.35
2023-03-21T00:31:34.728Z,4.63
2023-03-21T00:34:03.773Z,4.45
2023-03-21T00:36:32.221Z,4.30
2023-03-21T00:39:01.153Z,4.22
2023-03-21T00:41:42.170Z,4.82
2023-03-21T00:44:13.710Z,4.47
2023-03-21T00:47:00.594Z,4.80
2023-03-21T00:49:33.723Z,4.57
2023-03-21T00:52:15.306Z,4.28
2023-03-21T00:54:47.001Z,4.60
2023-03-21T00:57:16.902Z,4.70
2023-03-21T00:59:45.105Z,4.93
2023-03-21T01:02:22.785Z,5.10
2023-03-21T01:04:51.591Z,4.93
2023-03-21T01:07:19.825Z,5.47
2023-03-21T01:09:48.166Z,5.10
2023-03-21T01:12:17.911Z,4.55
2023-03-21T01:14:46.707Z,4.60
2023-03-21T01:17:14.993Z,4.90
2023-03-21T01:19:51.677Z,5.30
2023-03-21T01:22:21.194Z,5.30
2023-03-21T01:24:55.426Z,5.28
2023-03-21T01:27:30.033Z,4.85
2023-03-21T01:29:58.723Z,5.55
2023-03-21T01:32:27.891Z,5.00
2023-03-21T01:34:56.228Z,4.50
2023-03-21T01:37:26.561Z,4.90
2023-03-21T01:39:54.808Z,5.60
2023-03-21T01:42:23.138Z,4.57
2023-03-21T01:44:58.696Z,5.13
2023-03-21T01:47:27.384Z,5.10
2023-03-21T01:49:59.530Z,5.10
2023-03-21T01:52:36.976Z,4.60
2023-03-21T01:55:12.162Z,4.93
2023-03-21T01:57:58.558Z,4.57
2023-03-21T02:00:36.542Z,4.38
2023-03-21T02:03:16.867Z,5.10
2023-03-21T02:05:55.523Z,4.15
2023-03-21T02:08:38.294Z,4.03
2023-03-21T02:13:36.794Z,3.88
2023-03-21T02:16:16.047Z,4.68
2023-03-21T02:18:50.809Z,4.22
2023-03-21T02:22:01.250Z,4.20
2023-03-21T02:24:59.518Z,4.28
2023-03-21T02:27:36.103Z,4.90
2023-03-21T02:30:51.651Z,4.82
2023-03-21T02:34:01.669Z,4.22
2023-03-21T02:36:47.098Z,3.85
2023-03-21T02:39:19.137Z,4.40
2023-03-21T02:41:53.848Z,4.43
2023-03-21T02:44:27.823Z,4.88
2023-03-21T02:47:05.964Z,4.53
2023-03-21T02:49:42.016Z,4.70
2023-03-21T02:52:25.758Z,4.75
2023-03-21T02:55:04.991Z,4.40
2023-03-21T02:57:42.464Z,4.82
2023-03-21T03:00:17.199Z,4.13
2023-03-21T03:02:48.828Z,4.60
2023-03-21T03:05:22.685Z,5.32
2023-03-21T03:08:37.551Z,5.05
2023-03-21T03:11:24.028Z,4.57
2023-03-21T03:14:46.890Z,4.47
2023-03-21T03:17:18.797Z,4.70
2023-03-21T03:20:07.226Z,4.70
2023-03-21T03:22:48.492Z,4.90
2023-03-21T03:25:35.822Z,5.25
2023-03-21T03:28:10.785Z,5.23
2023-03-21T03:30:44.924Z,4.43
2023-03-21T03:33:23.563Z,5.28
2023-03-21T03:36:04.923Z,4.57
2023-03-21T03:38:38.232Z,5.27
2023-03-21T03:41:17.694Z,5.35
2023-03-21T03:43:51.548Z,5.03
2023-03-21T03:46:23.544Z,5.43
2023-03-21T03:48:56.799Z,5.60
2023-03-21T03:51:30.630Z,4.88
2023-03-21T03:54:02.340Z,4.57
2023-03-21T03:56:32.585Z,5.35
2023-03-21T03:59:05.479Z,5.30
2023-03-21T04:01:34.143Z,4.97
2023-03-21T04:04:12.685Z,5.30
2023-03-21T04:06:43.587Z,5.20
2023-03-21T04:09:20.910Z,5.10
2023-03-21T04:11:53.118Z,5.60
2023-03-21T04:14:21.366Z,4.93
2023-03-21T04:16:50.983Z,5.20
2023-03-21T04:19:19.583Z,4.60
2023-03-21T04:21:47.922Z,4.95
2023-03-21T04:24:17.358Z,5.20
2023-03-21T04:26:45.796Z,4.78
2023-03-21T04:29:17.001Z,5.35
2023-03-21T04:31:45.265Z,5.38
2023-03-21T04:34:13.700Z,4.55
2023-03-21T04:36:44.751Z,4.95
2023-03-21T04:39:13.798Z,4.93
2023-03-21T04:41:43.103Z,5.57
2023-03-21T04:44:12.530Z,4.93
2023-03-21T04:46:42.764Z,5.20
2023-03-21T04:49:11.586Z,4.88
2023-03-21T04:51:40.668Z,5.43
2023-03-21T04:54:11.810Z,5.07
2023-03-21T04:56:40.096Z,5.18
2023-03-21T04:59:11.374Z,4.93
2023-03-21T05:01:44.031Z,4.47
2023-03-21T05:04:14.756Z,5.10
2023-03-21T05:06:44.054Z,4.70
2023-03-21T05:09:13.339Z,4.50
2023-03-21T05:11:42.828Z,4.55
2023-03-21T05:14:13.315Z,4.35
2023-03-21T05:16:45.377Z,5.28
2023-03-21T05:19:15.345Z,4.53
2023-03-21T05:21:43.797Z,4.72
2023-03-21T05:24:15.594Z,5.25
2023-03-21T05:26:50.277Z,4.55
2023-03-21T05:29:22.435Z,4.30
2023-03-21T05:31:52.167Z,4.70
2023-03-21T05:34:21.898Z,4.10
2023-03-21T05:36:50.166Z,4.20
2023-03-21T05:39:18.644Z,4.22
2023-03-21T05:41:47.327Z,4.55
2023-03-21T05:44:15.717Z,4.53
2023-03-21T05:46:45.474Z,151.73
2023-03-21T05:49:15.356Z,28.35
2023-03-21T05:51:45.051Z,35.72
2023-03-21T05:54:16.836Z,28.60
2023-03-21T05:56:45.464Z,21.80
2023-03-21T05:59:16.642Z,17.52
2023-03-21T06:01:44.899Z,27.67
2023-03-21T06:04:14.820Z,32.13
2023-03-21T06:06:44.722Z,13.50
2023-03-21T06:09:15.000Z,9.77
2023-03-21T06:11:48.600Z,5.97
2023-03-21T06:14:19.786Z,4.93
2023-03-21T06:16:48.794Z,4.70
2023-03-21T06:19:20.304Z,6.70
2023-03-21T06:21:49.291Z,27.02
2023-03-21T06:24:18.704Z,41.08
2023-03-21T06:26:48.389Z,22.65
2023-03-21T06:29:19.604Z,12.20
2023-03-21T06:31:48.378Z,22.52
2023-03-21T06:34:18.070Z,22.00
2023-03-21T06:36:47.375Z,11.57
2023-03-21T06:39:16.103Z,22.80
2023-03-21T06:41:44.654Z,8.13
2023-03-21T06:44:13.176Z,13.57
2023-03-21T06:46:41.599Z,8.70
2023-03-21T06:49:10.150Z,10.68
2023-03-21T06:51:43.412Z,6.75
2023-03-21T06:54:12.419Z,6.72
2023-03-21T06:56:40.919Z,8.65
2023-03-21T06:59:09.784Z,7.10
2023-03-21T07:01:38.889Z,48.00
2023-03-21T07:04:07.173Z,71.63
2023-03-21T07:06:36.114Z,39.58
2023-03-21T07:09:06.620Z,30.30
2023-03-21T07:11:38.871Z,18.42
2023-03-21T07:14:07.705Z,10.52
2023-03-21T07:16:36.173Z,27.25
2023-03-21T07:19:04.484Z,14.80
2023-03-21T07:21:32.876Z,14.95
2023-03-21T07:24:01.576Z,24.52
2023-03-21T07:26:31.197Z,25.30
2023-03-21T07:28:59.612Z,16.75
2023-03-21T07:31:30.219Z,7.70
2023-03-21T07:34:00.674Z,7.18
2023-03-21T07:36:29.135Z,8.95
2023-03-21T07:38:59.900Z,8.75
2023-03-21T07:41:30.709Z,9.80
2023-03-21T07:44:00.402Z,7.97
2023-03-21T07:46:28.929Z,6.47
2023-03-21T07:48:57.478Z,9.75
2023-03-21T07:51:27.477Z,6.35
2023-03-21T07:53:57.462Z,5.75
2023-03-21T07:56:26.695Z,6.10
2023-03-21T07:58:55.248Z,5.95
2023-03-21T08:01:24.973Z,5.93
2023-03-21T08:03:53.799Z,6.72
2023-03-21T08:06:22.214Z,5.88
2023-03-21T08:08:51.062Z,5.32
2023-03-21T08:11:21.515Z,5.55
2023-03-21T08:13:49.788Z,5.75
2023-03-21T08:16:20.947Z,5.32
2023-03-21T08:18:50.716Z,6.05
2023-03-21T08:21:21.691Z,5.30
2023-03-21T08:23:50.176Z,5.35
2023-03-21T08:26:19.507Z,5.35
2023-03-21T08:28:48.198Z,5.60
2023-03-21T08:31:21.187Z,5.68
2023-03-21T08:33:54.739Z,5.25
2023-03-21T08:36:26.685Z,5.90
2023-03-21T08:39:04.418Z,5.32
2023-03-21T08:41:34.632Z,6.07
2023-03-21T08:44:05.885Z,7.50
2023-03-21T08:46:35.769Z,6.25
2023-03-21T08:49:06.291Z,6.32
2023-03-21T08:51:34.895Z,6.15
2023-03-21T08:54:03.147Z,5.72
2023-03-21T08:56:32.618Z,12.65
2023-03-21T08:59:02.864Z,6.05
2023-03-21T09:01:32.772Z,6.10
2023-03-21T09:04:01.199Z,6.38
2023-03-21T09:06:33.760Z,6.10
2023-03-21T09:09:02.054Z,6.50
2023-03-21T09:11:30.342Z,5.93
2023-03-21T09:14:01.263Z,6.10
2023-03-21T09:16:29.798Z,6.28
2023-03-21T09:18:59.157Z,5.93
2023-03-21T09:21:28.781Z,6.78
2023-03-21T09:24:00.074Z,5.50
2023-03-21T09:26:28.785Z,5.38
2023-03-21T09:29:01.272Z,5.72
2023-03-21T09:31:30.368Z,5.17
2023-03-21T09:33:59.051Z,5.57
2023-03-21T09:36:28.155Z,5.60
2023-03-21T09:38:58.023Z,5.45
2023-03-21T09:41:37.677Z,5.30
2023-03-21T09:44:22.888Z,5.60
2023-03-21T09:46:56.840Z,5.53
2023-03-21T09:49:31.084Z,5.30
2023-03-21T09:52:03.638Z,5.32
2023-03-21T09:54:39.441Z,5.97
2023-03-21T09:57:29.523Z,5.90
2023-03-21T10:00:01.650Z,5.95
2023-03-21T10:02:39.117Z,5.65
2023-03-21T10:05:18.228Z,5.95
2023-03-21T10:07:53.072Z,12.18
2023-03-21T10:10:28.958Z,6.57
2023-03-21T10:12:58.498Z,7.22
2023-03-21T10:15:30.714Z,6.40
2023-03-21T10:18:02.582Z,13.00
2023-03-21T10:20:33.771Z,23.13
2023-03-21T10:23:05.179Z,30.63
2023-03-21T10:25:37.169Z,19.08
2023-03-21T10:28:07.721Z,10.68
2023-03-21T10:30:42.287Z,13.77
2023-03-21T10:33:15.397Z,14.38
2023-03-21T10:35:47.784Z,11.07
2023-03-21T10:38:19.484Z,7.10
2023-03-21T10:40:49.269Z,6.30
2023-03-21T10:43:33.976Z,6.15
2023-03-21T10:46:08.386Z,5.90
2023-03-21T10:48:38.337Z,5.95
2023-03-21T10:51:09.874Z,5.80
2023-03-21T10:53:41.655Z,6.05
2023-03-21T10:56:12.969Z,5.97
2023-03-21T10:58:46.987Z,5.40
2023-03-21T11:01:26.014Z,5.57
2023-03-21T11:03:59.194Z,5.90
2023-03-21T11:06:30.648Z,5.55
2023-03-21T11:09:04.366Z,5.78
2023-03-21T11:11:39.747Z,5.70
2023-03-21T11:14:24.973Z,5.70
2023-03-21T11:16:53.291Z,5.97
2023-03-21T11:19:30.799Z,6.30
2023-03-21T11:21:59.339Z,6.40
2023-03-21T11:24:31.527Z,5.63
2023-03-21T11:27:01.644Z,5.93
2023-03-21T11:29:34.182Z,6.22
2023-03-21T11:32:10.857Z,5.28
2023-03-21T11:34:47.688Z,5.35
2023-03-21T11:37:27.447Z,5.40
2023-03-21T11:40:10.487Z,5.50
2023-03-21T11:42:46.284Z,5.53
2023-03-21T11:45:16.767Z,4.88
2023-03-21T11:47:46.258Z,4.35
2023-03-21T11:50:28.205Z,4.85
2023-03-21T11:53:29.514Z,5.55
2023-03-21T11:56:09.844Z,4.60
2023-03-21T11:58:54.310Z,4.47
2023-03-21T12:01:33.462Z,4.88
2023-03-21T12:04:31.898Z,4.45
2023-03-21T12:07:05.369Z,5.63
2023-03-21T12:12:50.051Z,4.20
2023-03-21T12:15:25.062Z,4.22
2023-03-21T12:18:05.811Z,4.35
2023-03-21T12:20:42.175Z,4.40
2023-03-21T12:23:38.436Z,4.05
2023-03-21T12:26:21.107Z,4.05
2023-03-21T12:33:03.654Z,5.53
2023-03-21T12:38:17.319Z,5.00
2023-03-21T12:41:02.597Z,5.75
2023-03-21T12:43:39.002Z,5.88
2023-03-21T12:46:13.768Z,6.93
2023-03-21T12:48:47.510Z,6.00
2023-03-21T12:51:20.862Z,5.70
2023-03-21T12:56:32.607Z,5.55
2023-03-21T12:59:06.195Z,5.60
2023-03-21T13:01:38.939Z,6.22
2023-03-21T13:04:47.272Z,5.93
2023-03-21T13:07:20.696Z,5.65
2023-03-21T13:09:48.983Z,5.03
2023-03-21T13:12:34.693Z,4.78
2023-03-21T13:15:23.668Z,4.47
2023-03-21T13:17:58.910Z,4.88
2023-03-21T13:20:34.339Z,4.45
2023-03-21T13:23:06.506Z,3.85
2023-03-21T13:25:42.434Z,3.50
2023-03-21T13:28:20.638Z,3.63
2023-03-21T13:30:50.200Z,4.00
2023-03-21T13:33:24.657Z,3.65
2023-03-21T13:36:05.385Z,3.70
2023-03-21T13:38:40.207Z,4.38
2023-03-21T13:41:11.315Z,4.07
2023-03-21T13:43:46.338Z,3.55
2023-03-21T13:46:25.001Z,3.40
2023-03-21T13:49:00.507Z,3.85
2023-03-21T13:51:47.363Z,4.15
2023-03-21T13:54:24.322Z,4.13
2023-03-21T13:56:59.955Z,4.35
2023-03-21T13:59:40.808Z,4.85
2023-03-21T14:02:28.447Z,3.90
2023-03-21T14:05:06.791Z,4.45
2023-03-21T14:07:38.433Z,4.22
2023-03-21T14:10:18.525Z,3.83
2023-03-21T14:12:47.503Z,3.78
2023-03-21T14:15:20.547Z,3.72
2023-03-21T14:17:54.161Z,4.57
2023-03-21T14:20:25.878Z,4.22
2023-03-21T14:22:56.573Z,3.78
2023-03-21T14:25:37.221Z,4.28
2023-03-21T14:28:17.890Z,3.10
2023-03-21T14:33:28.103Z,3.30
2023-03-21T14:36:00.881Z,3.10
2023-03-21T14:38:35.175Z,6.75
2023-03-21T14:41:05.978Z,4.45
2023-03-21T14:43:34.407Z,5.38
2023-03-21T14:46:02.858Z,4.00
2023-03-21T14:48:32.506Z,3.38
2023-03-21T14:51:05.065Z,3.72
2023-03-21T14:53:38.460Z,3.15
2023-03-21T14:56:12.285Z,4.10
2023-03-21T14:58:42.117Z,4.25
2023-03-21T15:01:17.354Z,4.03
2023-03-21T15:03:47.644Z,4.70
2023-03-21T15:06:16.465Z,4.20
2023-03-21T15:08:55.992Z,5.60
2023-03-21T15:11:32.972Z,4.70
2023-03-21T15:14:04.476Z,5.70
2023-03-21T15:16:33.838Z,6.85
2023-03-21T15:19:05.195Z,6.72
2023-03-21T15:21:38.314Z,7.30
2023-03-21T15:24:14.035Z,8.32
2023-03-21T15:26:46.027Z,8.05
2023-03-21T15:29:14.919Z,6.55
2023-03-21T15:31:43.288Z,17.17
2023-03-21T15:34:20.484Z,9.35
2023-03-21T15:36:51.430Z,11.98
2023-03-21T15:39:23.843Z,14.52
2023-03-21T15:42:03.262Z,24.43
2023-03-21T15:44:31.914Z,26.48
2023-03-21T15:47:00.373Z,20.67
2023-03-21T15:49:31.154Z,12.32
2023-03-21T15:52:13.844Z,12.98
2023-03-21T15:54:45.177Z,25.23
2023-03-21T15:57:24.880Z,14.90
2023-03-21T15:59:56.738Z,11.55
2023-03-21T16:02:30.350Z,8.40
2023-03-21T16:05:00.247Z,8.50
2023-03-21T16:07:28.895Z,7.35
2023-03-21T16:10:04.645Z,6.28
2023-03-21T16:12:35.273Z,6.22
2023-03-21T16:15:03.676Z,6.38
2023-03-21T16:17:37.709Z,6.47
2023-03-21T16:20:14.099Z,6.43
2023-03-21T16:22:42.462Z,6.45
2023-03-21T16:25:11.238Z,6.45
2023-03-21T16:27:41.129Z,6.30
2023-03-21T16:30:13.231Z,15.93
2023-03-21T16:32:44.570Z,216.48
2023-03-21T16:35:12.962Z,199.65
2023-03-21T16:37:41.577Z,56.33
2023-03-21T16:40:21.597Z,28.42
2023-03-21T16:42:51.660Z,57.63
2023-03-21T16:45:20.234Z,79.85
2023-03-21T16:47:48.871Z,113.22
2023-03-21T16:50:27.336Z,162.35
2023-03-21T16:52:56.669Z,65.47
2023-03-21T16:55:25.702Z,68.03
2023-03-21T16:57:57.327Z,131.63
2023-03-21T17:00:27.915Z,78.53
2023-03-21T17:02:57.761Z,172.98
2023-03-21T17:05:28.059Z,49.78
2023-03-21T17:07:57.048Z,20.45
2023-03-21T17:10:28.312Z,14.25
2023-03-21T17:12:57.914Z,18.45
2023-03-21T17:15:26.129Z,33.65
2023-03-21T17:17:55.633Z,33.00
2023-03-21T17:20:26.469Z,14.65
2023-03-21T17:22:54.813Z,27.95
2023-03-21T17:25:23.096Z,22.15
2023-03-21T17:27:53.135Z,38.13
2023-03-21T17:30:25.408Z,20.17
2023-03-21T17:32:54.294Z,12.65
2023-03-21T17:35:23.804Z,17.50
2023-03-21T17:37:53.209Z,7.53
2023-03-21T17:40:24.090Z,11.40
2023-03-21T17:42:53.299Z,8.52
2023-03-21T17:45:24.593Z,27.65
2023-03-21T17:47:54.969Z,39.95
2023-03-21T17:50:25.981Z,25.35
2023-03-21T17:52:56.538Z,30.77
2023-03-21T17:55:25.391Z,23.60
2023-03-21T17:57:53.663Z,27.35
2023-03-21T18:00:25.214Z,57.40
2023-03-21T18:02:53.972Z,32.00
2023-03-21T18:05:23.071Z,26.65
2023-03-21T18:08:09.400Z,18.33
2023-03-21T18:10:40.588Z,16.48
2023-03-21T18:13:09.802Z,11.00
2023-03-21T18:15:44.243Z,13.65
2023-03-21T18:18:13.068Z,251.07
2023-03-21T18:20:58.359Z,122.90
2023-03-21T18:23:27.127Z,63.97
2023-03-21T18:25:55.592Z,129.77
2023-03-21T18:28:24.594Z,51.38
2023-03-21T18:31:16.608Z,32.20
2023-03-21T18:33:45.218Z,30.30
2023-03-21T18:36:16.578Z,24.52
2023-03-21T18:38:45.327Z,12.82
2023-03-21T18:41:15.142Z,9.68
2023-03-21T18:44:02.304Z,8.40
2023-03-21T18:46:33.447Z,8.07
2023-03-21T18:49:27.040Z,9.98
2023-03-21T18:51:50.157Z,15.02
2023-03-21T18:54:18.554Z,39.08
2023-03-21T18:57:33.820Z,22.10
2023-03-21T18:59:40.519Z,20.00
2023-03-21T19:02:13.125Z,14.07
2023-03-21T19:04:41.634Z,12.13
2023-03-21T19:07:10.331Z,9.25
2023-03-21T19:10:01.348Z,9.65
2023-03-21T19:12:27.526Z,9.63
2023-03-21T19:14:55.898Z,9.13
2023-03-21T19:18:21.822Z,9.45
2023-03-21T19:20:15.501Z,10.35
2023-03-21T19:22:44.690Z,12.75
2023-03-21T19:25:14.668Z,11.23
2023-03-21T19:27:43.160Z,11.18
2023-03-21T19:30:15.742Z,19.33
2023-03-21T19:32:46.221Z,16.23
2023-03-21T19:35:14.988Z,17.67
2023-03-21T19:37:44.694Z,71.88
2023-03-21T19:40:13.861Z,50.70
2023-03-21T19:42:45.920Z,56.42
2023-03-21T19:45:14.440Z,30.88
2023-03-21T19:47:42.929Z,48.47
2023-03-21T19:50:47.309Z,64.85
2023-03-21T19:53:03.580Z,58.25
2023-03-21T19:55:32.542Z,128.55
2023-03-21T19:58:02.114Z,51.80
2023-03-21T20:00:30.907Z,28.30
2023-03-21T20:02:59.800Z,18.73
2023-03-21T20:05:32.205Z,16.13
2023-03-21T20:08:01.156Z,15.68
2023-03-21T20:10:29.955Z,15.43
2023-03-21T20:12:58.325Z,13.98
2023-03-21T20:15:29.688Z,13.27
2023-03-21T20:17:58.718Z,11.10
2023-03-21T20:20:28.667Z,11.02
2023-03-21T20:23:06.852Z,12.15
2023-03-21T20:25:35.956Z,11.10
2023-03-21T20:28:25.794Z,12.15
2023-03-21T20:30:57.001Z,12.13
2023-03-21T20:33:26.095Z,11.90
2023-03-21T20:38:52.099Z,12.80
2023-03-21T20:41:23.491Z,13.75
2023-03-21T20:46:44.148Z,30.00
2023-03-21T20:49:12.838Z,40.17
2023-03-21T20:54:32.272Z,23.55
2023-03-21T20:57:00.538Z,23.98
2023-03-21T20:59:29.260Z,31.58
2023-03-21T21:01:58.798Z,48.92
2023-03-21T21:04:48.309Z,49.67
2023-03-21T21:07:21.630Z,26.02
2023-03-21T21:09:51.745Z,30.48
2023-03-21T21:12:20.809Z,38.38
2023-03-21T21:14:49.843Z,37.20
2023-03-21T21:17:40.398Z,48.30
2023-03-21T21:20:16.749Z,30.20
2023-03-21T21:22:58.929Z,23.52
2023-03-21T21:25:29.212Z,21.55
2023-03-21T21:27:57.843Z,22.38
2023-03-21T21:30:26.448Z,19.95
2023-03-21T21:32:55.765Z,22.98
2023-03-21T21:35:24.209Z,23.08
2023-03-21T21:37:54.343Z,21.00
2023-03-21T21:40:23.518Z,21.15
2023-03-21T21:42:52.775Z,24.23
2023-03-21T21:45:24.231Z,27.00
2023-03-21T21:47:53.099Z,23.80
2023-03-21T21:50:22.570Z,28.48
2023-03-21T21:52:54.840Z,43.80
2023-03-21T21:55:23.900Z,28.02
2023-03-21T21:57:59.148Z,29.52
2023-03-21T22:00:28.834Z,29.30
2023-03-21T22:02:57.649Z,26.83
2023-03-21T22:05:26.496Z,26.08
2023-03-21T22:07:57.935Z,31.80
2023-03-21T22:10:27.581Z,45.63
2023-03-21T22:12:56.403Z,32.08
2023-03-21T22:15:25.757Z,32.90
2023-03-21T22:17:54.413Z,28.15
2023-03-21T22:20:26.836Z,32.67
2023-03-21T22:22:57.651Z,41.90
2023-03-21T22:25:25.986Z,35.90
2023-03-21T22:27:55.104Z,31.35
2023-03-21T22:30:24.689Z,25.02
2023-03-21T22:33:08.080Z,24.83
2023-03-21T22:35:37.446Z,38.35
2023-03-21T22:38:07.361Z,26.63
2023-03-21T22:40:35.637Z,41.03
2023-03-21T22:43:04.084Z,38.47
2023-03-21T22:45:33.997Z,26.42
2023-03-21T22:48:02.402Z,24.05
2023-03-21T22:50:33.545Z,42.10
2023-03-21T22:53:01.753Z,33.60
2023-03-21T22:55:31.349Z,35.00
2023-03-21T22:57:59.706Z,26.88
2023-03-21T23:00:27.990Z,26.02
2023-03-21T23:02:57.256Z,28.85
2023-03-21T23:05:28.118Z,23.98
2023-03-21T23:07:56.502Z,24.15
2023-03-21T23:10:25.143Z,29.85
2023-03-21T23:12:55.814Z,26.65
2023-03-21T23:15:24.048Z,26.00
2023-03-21T23:17:52.291Z,30.52
2023-03-21T23:20:20.784Z,91.70
2023-03-21T23:22:49.047Z,84.50
2023-03-21T23:25:20.449Z,112.32
2023-03-21T23:27:48.753Z,133.82
2023-03-21T23:30:18.773Z,62.08
2023-03-21T23:32:47.224Z,37.22
2023-03-21T23:35:15.986Z,29.00
2023-03-21T23:37:52.301Z,33.58
2023-03-21T23:40:21.325Z,28.85
2023-03-21T23:42:49.747Z,30.73
2023-03-21T23:45:19.441Z,29.40
2023-03-21T23:47:47.723Z,27.52
2023-03-21T23:50:15.984Z,31.15
2023-03-21T23:52:44.872Z,32.92
2023-03-21T23:55:13.141Z,27.98
2023-03-21T23:57:41.913Z,26.20
